createdAt,value
2017-08-28T00:00:01.348Z,99.99
2017-08-28T00:01:15.975Z,99.99
2017-08-28T00:02:01.389Z,99.99
2017-08-28T00:03:01.425Z,99.99
2017-08-28T00:04:01.444Z,99.99
2017-08-28T00:05:01.470Z,99.99
2017-08-28T00:06:01.502Z,99.99
2017-08-28T00:07:01.523Z,99.99
2017-08-28T00:08:01.217Z,99.99
2017-08-28T00:10:01.578Z,99.99
2017-08-28T00:11:01.619Z,99.99
2017-08-28T00:12:01.319Z,99.99
2017-08-28T00:13:01.655Z,99.99
2017-08-28T00:14:01.371Z,99.99
2017-08-28T00:15:01.710Z,99.99
2017-08-28T00:16:16.333Z,99.99
2017-08-28T00:17:01.755Z,99.99
2017-08-28T00:18:01.808Z,99.99
2017-08-28T00:19:01.800Z,99.99
2017-08-28T00:21:01.841Z,99.99
2017-08-28T00:22:01.866Z,99.99
2017-08-28T00:23:01.583Z,99.99
2017-08-28T00:24:01.911Z,99.99
2017-08-28T00:25:01.945Z,99.99
2017-08-28T00:27:01.999Z,99.99
2017-08-28T00:28:02.008Z,99.99
2017-08-28T00:29:02.030Z,99.99
2017-08-28T00:30:02.063Z,99.99
2017-08-28T00:31:02.092Z,99.99
2017-08-28T00:33:02.127Z,99.99
2017-08-28T00:34:02.157Z,99.99
2017-08-28T00:35:02.181Z,99.99
2017-08-28T00:36:02.205Z,99.99
2017-08-28T00:37:02.230Z,99.99
2017-08-28T00:38:02.245Z,99.99
2017-08-28T00:39:02.262Z,99.99
2017-08-28T00:40:02.301Z,99.99
2017-08-28T00:41:02.322Z,99.99
2017-08-28T00:42:02.342Z,99.99
2017-08-28T00:43:02.374Z,99.99
2017-08-28T00:44:02.391Z,99.99
2017-08-28T00:45:02.419Z,99.99
2017-08-28T00:46:02.123Z,99.99
2017-08-28T00:47:02.460Z,99.99
2017-08-28T00:48:17.081Z,99.99
2017-08-28T00:49:02.509Z,99.99
2017-08-28T00:50:02.532Z,99.99
2017-08-28T00:51:02.552Z,99.99
2017-08-28T00:52:02.588Z,99.99
2017-08-28T00:53:02.591Z,99.99
2017-08-28T00:54:02.632Z,99.99
2017-08-28T00:55:02.649Z,99.99
2017-08-28T00:57:02.682Z,99.99
2017-08-28T00:58:02.722Z,99.99
2017-08-28T00:59:02.747Z,99.99
2017-08-28T01:00:02.756Z,99.99
2017-08-28T01:01:02.792Z,99.99
2017-08-28T01:02:02.809Z,99.99
2017-08-28T01:03:02.852Z,99.99
2017-08-28T01:04:17.460Z,99.99
2017-08-28T01:05:02.888Z,99.99
2017-08-28T01:06:02.901Z,99.99
2017-08-28T01:07:02.935Z,99.99
2017-08-28T01:08:02.959Z,99.99
2017-08-28T01:10:02.999Z,99.99
2017-08-28T01:11:02.709Z,99.99
2017-08-28T01:12:03.053Z,99.99
2017-08-28T01:13:03.068Z,99.99
2017-08-28T01:14:03.104Z,99.99
2017-08-28T01:15:03.116Z,99.99
2017-08-28T01:16:03.135Z,99.99
2017-08-28T01:17:03.161Z,99.99
2017-08-28T01:18:03.188Z,99.99
2017-08-28T01:19:03.208Z,99.99
2017-08-28T01:20:17.828Z,99.99
2017-08-28T01:21:03.263Z,99.99
2017-08-28T01:22:03.287Z,99.99
2017-08-28T01:23:03.315Z,99.99
2017-08-28T01:24:03.330Z,99.99
2017-08-28T01:25:03.348Z,99.99
2017-08-28T01:26:03.375Z,99.99
2017-08-28T01:27:03.405Z,99.99
2017-08-28T01:28:03.112Z,99.99
2017-08-28T01:29:03.118Z,99.99
2017-08-28T01:30:03.471Z,99.99
2017-08-28T01:31:03.495Z,99.99
2017-08-28T01:32:03.501Z,99.99
2017-08-28T01:33:03.547Z,99.99
2017-08-28T01:34:03.552Z,99.99
2017-08-28T01:35:03.266Z,99.99
2017-08-28T01:36:18.207Z,99.99
2017-08-28T01:37:03.629Z,99.99
2017-08-28T01:38:03.667Z,99.99
2017-08-28T01:39:03.676Z,99.99
2017-08-28T01:40:03.702Z,99.99
2017-08-28T01:41:03.401Z,99.99
2017-08-28T01:42:03.754Z,99.99
2017-08-28T01:43:03.758Z,99.99
2017-08-28T01:44:03.799Z,99.99
2017-08-28T01:45:03.809Z,99.99
2017-08-28T01:46:03.529Z,99.99
2017-08-28T01:48:03.885Z,99.99
2017-08-28T01:49:03.922Z,99.99
2017-08-28T01:50:03.923Z,99.99
2017-08-28T01:51:18.656Z,99.99
2017-08-28T01:52:03.977Z,99.99
2017-08-28T01:53:04.003Z,99.99
2017-08-28T01:54:04.028Z,99.99
2017-08-28T01:55:04.050Z,99.99
2017-08-28T01:56:04.074Z,99.99
2017-08-28T01:57:04.097Z,99.99
2017-08-28T01:58:04.116Z,99.99
2017-08-28T01:59:04.150Z,99.99
2017-08-28T02:00:04.170Z,99.99
2017-08-28T02:01:04.197Z,99.99
2017-08-28T02:03:04.228Z,99.99
2017-08-28T02:04:04.260Z,99.99
2017-08-28T02:05:04.273Z,99.99
2017-08-28T02:07:04.334Z,99.99
2017-08-28T02:08:04.350Z,99.99
2017-08-28T02:09:04.379Z,99.99
2017-08-28T02:10:04.390Z,99.99
2017-08-28T02:12:04.440Z,99.99
2017-08-28T02:13:04.469Z,99.99
2017-08-28T02:14:04.501Z,99.99
2017-08-28T02:15:04.514Z,99.99
2017-08-28T02:16:04.541Z,99.99
2017-08-28T02:17:04.552Z,99.99
2017-08-28T02:18:04.582Z,99.99
2017-08-28T02:19:04.606Z,99.99
2017-08-28T02:20:04.636Z,99.99
2017-08-28T02:21:04.641Z,99.99
2017-08-28T02:22:04.679Z,99.99
2017-08-28T02:23:19.291Z,99.99
2017-08-28T02:24:04.726Z,99.99
2017-08-28T02:25:04.751Z,99.99
2017-08-28T02:26:04.769Z,99.99
2017-08-28T02:27:04.791Z,99.99
2017-08-28T02:28:04.810Z,99.99
2017-08-28T02:29:04.836Z,99.99
2017-08-28T02:30:04.857Z,99.99
2017-08-28T02:31:04.881Z,99.99
2017-08-28T02:32:04.910Z,99.99
2017-08-28T02:33:04.930Z,99.99
2017-08-28T02:34:04.944Z,99.99
2017-08-28T02:35:04.970Z,99.99
2017-08-28T02:36:05.002Z,99.99
2017-08-28T02:37:05.021Z,99.99
2017-08-28T02:38:04.722Z,99.99
2017-08-28T02:39:19.663Z,99.99
2017-08-28T02:40:05.088Z,99.99
2017-08-28T02:41:05.117Z,99.99
2017-08-28T02:42:04.818Z,99.99
2017-08-28T02:43:05.166Z,99.99
2017-08-28T02:44:05.187Z,99.99
2017-08-28T02:46:05.213Z,99.99
2017-08-28T02:47:05.237Z,99.99
2017-08-28T02:48:05.283Z,99.99
2017-08-28T02:49:05.300Z,99.99
2017-08-28T02:50:05.320Z,99.99
2017-08-28T02:51:05.343Z,99.99
2017-08-28T02:52:05.367Z,99.99
2017-08-28T02:53:05.389Z,99.99
2017-08-28T02:54:05.416Z,99.99
2017-08-28T02:55:20.033Z,99.99
2017-08-28T02:56:05.448Z,99.99
2017-08-28T02:57:05.153Z,99.99
2017-08-28T02:58:05.504Z,99.99
2017-08-28T02:59:05.529Z,99.99
2017-08-28T03:00:05.549Z,99.99
2017-08-28T03:01:05.574Z,99.99
2017-08-28T03:02:05.595Z,99.99
2017-08-28T03:03:05.614Z,99.99
2017-08-28T03:04:05.641Z,99.99
2017-08-28T03:06:05.692Z,99.99
2017-08-28T03:07:05.710Z,99.99
2017-08-28T03:08:05.725Z,99.99
2017-08-28T03:09:05.758Z,99.99
2017-08-28T03:10:05.778Z,99.99
2017-08-28T03:11:20.401Z,99.99
2017-08-28T03:12:05.500Z,99.99
2017-08-28T03:13:05.850Z,99.99
2017-08-28T03:14:05.875Z,99.99
2017-08-28T03:15:05.892Z,99.99
2017-08-28T03:16:05.915Z,99.99
2017-08-28T03:17:05.935Z,99.99
2017-08-28T03:19:05.984Z,99.99
2017-08-28T03:21:06.019Z,99.99
2017-08-28T03:22:06.057Z,99.99
2017-08-28T03:23:06.068Z,99.99
2017-08-28T03:24:06.108Z,99.99
2017-08-28T03:25:06.114Z,99.99
2017-08-28T03:26:20.743Z,99.99
2017-08-28T03:27:06.159Z,99.99
2017-08-28T03:28:06.190Z,99.99
2017-08-28T03:30:06.229Z,99.99
2017-08-28T03:31:06.260Z,99.99
2017-08-28T03:33:06.002Z,99.99
2017-08-28T03:34:06.326Z,99.99
2017-08-28T03:35:06.355Z,99.99
2017-08-28T03:36:06.380Z,99.99
2017-08-28T03:37:06.398Z,99.99
2017-08-28T03:38:06.407Z,99.99
2017-08-28T03:39:06.127Z,99.99
2017-08-28T03:40:06.147Z,99.99
2017-08-28T03:41:06.488Z,99.99
2017-08-28T03:42:06.193Z,99.99
2017-08-28T03:43:06.214Z,99.99
2017-08-28T03:44:06.239Z,99.99
2017-08-28T03:45:06.261Z,99.99
2017-08-28T03:46:06.280Z,99.99
2017-08-28T03:47:06.310Z,99.99
2017-08-28T03:49:06.350Z,99.99
2017-08-28T03:50:06.376Z,99.99
2017-08-28T03:51:06.712Z,99.99
2017-08-28T03:52:06.726Z,99.99
2017-08-28T03:53:06.443Z,99.99
2017-08-28T03:54:06.777Z,99.99
2017-08-28T03:55:06.814Z,99.99
2017-08-28T03:56:06.830Z,99.99
2017-08-28T03:57:06.857Z,99.99
2017-08-28T03:58:21.471Z,99.99
2017-08-28T03:59:06.893Z,99.99
2017-08-28T04:00:06.596Z,99.99
2017-08-28T04:01:06.618Z,99.99
2017-08-28T04:02:06.648Z,99.99
2017-08-28T04:03:06.865Z,99.99
2017-08-28T04:05:06.716Z,99.99
2017-08-28T04:06:07.245Z,99.99
2017-08-28T04:07:07.276Z,99.99
2017-08-28T04:08:07.092Z,99.99
2017-08-28T04:09:07.119Z,99.99
2017-08-28T04:10:07.137Z,99.99
2017-08-28T04:11:07.168Z,99.99
2017-08-28T04:12:06.874Z,99.99
2017-08-28T04:13:06.895Z,99.99
2017-08-28T04:14:21.832Z,99.99
2017-08-28T04:16:06.960Z,99.99
2017-08-28T04:17:06.986Z,99.99
2017-08-28T04:18:07.319Z,99.99
2017-08-28T04:19:07.347Z,99.99
2017-08-28T04:20:07.367Z,99.99
2017-08-28T04:21:07.394Z,99.99
2017-08-28T04:22:07.423Z,99.99
2017-08-28T04:23:07.442Z,99.99
2017-08-28T04:24:07.461Z,99.99
2017-08-28T04:25:07.488Z,99.99
2017-08-28T04:27:07.518Z,99.99
2017-08-28T04:28:07.561Z,99.99
2017-08-28T04:29:07.249Z,99.99
2017-08-28T04:30:22.195Z,99.99
2017-08-28T04:31:07.611Z,99.99
2017-08-28T04:32:07.631Z,99.99
2017-08-28T04:33:07.671Z,99.99
2017-08-28T04:35:07.710Z,99.99
2017-08-28T04:36:07.411Z,99.99
2017-08-28T04:37:07.438Z,99.99
2017-08-28T04:38:07.770Z,99.99
2017-08-28T04:39:07.804Z,99.99
2017-08-28T04:40:07.512Z,99.99
2017-08-28T04:41:07.529Z,99.99
2017-08-28T04:42:07.549Z,99.99
2017-08-28T04:43:07.583Z,99.99
2017-08-28T04:44:07.600Z,99.99
2017-08-28T04:45:07.944Z,99.99
2017-08-28T04:46:22.560Z,99.99
2017-08-28T04:47:07.673Z,99.99
2017-08-28T04:48:07.692Z,99.99
2017-08-28T04:49:08.031Z,99.99
2017-08-28T04:50:07.735Z,99.99
2017-08-28T04:51:08.068Z,99.99
2017-08-28T04:52:08.101Z,99.99
2017-08-28T04:53:08.121Z,99.99
2017-08-28T04:54:08.149Z,99.99
2017-08-28T04:55:08.180Z,99.99
2017-08-28T04:56:08.187Z,99.99
2017-08-28T04:57:08.217Z,99.99
2017-08-28T04:58:08.244Z,99.99
2017-08-28T04:59:08.268Z,99.99
2017-08-28T05:00:08.287Z,99.99
2017-08-28T05:01:22.914Z,99.99
2017-08-28T05:02:08.011Z,99.99
2017-08-28T05:03:08.363Z,99.99
2017-08-28T05:04:08.395Z,99.99
2017-08-28T05:05:08.413Z,99.99
2017-08-28T05:06:08.125Z,99.99
2017-08-28T05:07:08.464Z,99.99
2017-08-28T05:08:08.495Z,99.15
2017-08-28T05:09:08.524Z,96.61
2017-08-28T05:12:08.595Z,89.06
2017-08-28T05:13:08.300Z,87.9
2017-08-28T05:14:08.641Z,86.6
2017-08-28T05:15:08.661Z,85.83
2017-08-28T05:16:08.695Z,84.39
2017-08-28T05:17:08.720Z,85.25
2017-08-28T05:19:08.772Z,86.9
2017-08-28T05:20:08.803Z,88.34
2017-08-28T05:21:08.825Z,88.97
2017-08-28T05:22:08.854Z,89.26
2017-08-28T05:23:08.885Z,89.4
2017-08-28T05:24:08.905Z,90.56
2017-08-28T05:25:08.935Z,90.52
2017-08-28T05:26:08.951Z,91.71
2017-08-28T05:27:08.988Z,91.76
2017-08-28T05:28:09.010Z,92.29
2017-08-28T05:29:09.041Z,93.1
2017-08-28T05:30:09.068Z,92.43
2017-08-28T05:31:09.087Z,92.63
2017-08-28T05:32:09.119Z,93.68
2017-08-28T05:33:23.735Z,94.07
2017-08-28T05:34:09.172Z,94.12
2017-08-28T05:35:09.195Z,94.31
2017-08-28T05:36:09.221Z,95.36
2017-08-28T05:37:09.232Z,95.55
2017-08-28T05:38:09.254Z,95.65
2017-08-28T05:39:09.297Z,95.17
2017-08-28T05:40:09.318Z,94.4
2017-08-28T05:41:09.331Z,94.83
2017-08-28T05:43:09.383Z,94.74
2017-08-28T05:44:09.417Z,94.45
2017-08-28T05:45:09.428Z,93.59
2017-08-28T05:46:09.470Z,93.44
2017-08-28T05:47:09.490Z,93.1
2017-08-28T05:48:09.563Z,93.34
2017-08-28T05:49:24.135Z,92.38
2017-08-28T05:50:09.577Z,91.42
2017-08-28T05:52:09.621Z,88.15
2017-08-28T05:53:09.644Z,86.85
2017-08-28T05:54:09.670Z,84.39
2017-08-28T05:56:09.724Z,82.01
2017-08-28T05:57:09.739Z,79.98
2017-08-28T05:58:09.778Z,79.31
2017-08-28T05:59:09.796Z,78.86
2017-08-28T06:00:09.878Z,76.75
2017-08-28T06:01:09.853Z,75.82
2017-08-28T06:02:09.886Z,75.4
2017-08-28T06:03:09.917Z,75.05
2017-08-28T06:04:09.629Z,73.93
2017-08-28T06:05:24.569Z,73.25
2017-08-28T06:06:09.990Z,72.9
2017-08-28T06:07:10.029Z,71.84
2017-08-28T06:08:10.047Z,72.32
2017-08-28T06:09:10.086Z,71.3
2017-08-28T06:10:10.122Z,70.9
2017-08-28T06:11:10.154Z,70.26
2017-08-28T06:12:10.177Z,68.66
2017-08-28T06:13:10.212Z,68.08
2017-08-28T06:14:10.233Z,68.46
2017-08-28T06:15:10.282Z,68.56
2017-08-28T06:16:10.299Z,67.88
2017-08-28T06:17:10.349Z,67.88
2017-08-28T06:18:10.371Z,68.08
2017-08-28T06:19:10.408Z,66.91
2017-08-28T06:20:10.124Z,66.95
2017-08-28T06:21:25.066Z,67.4
2017-08-28T06:22:10.502Z,67.4
2017-08-28T06:23:10.217Z,66.82
2017-08-28T06:24:10.563Z,66.37
2017-08-28T06:25:10.601Z,65.3
2017-08-28T06:26:10.624Z,64.79
2017-08-28T06:27:10.341Z,65.14
2017-08-28T06:28:10.382Z,65.2
2017-08-28T06:29:10.741Z,65.3
2017-08-28T06:30:10.764Z,65.98
2017-08-28T06:31:10.809Z,66.14
2017-08-28T06:32:10.833Z,65.79
2017-08-28T06:33:10.869Z,65.2
2017-08-28T06:34:10.581Z,64.27
2017-08-28T06:35:10.940Z,62.95
2017-08-28T06:36:25.564Z,64.2
2017-08-28T06:37:11.033Z,64.95
2017-08-28T06:38:11.025Z,64.27
2017-08-28T06:39:11.059Z,64.17
2017-08-28T06:40:11.133Z,63.24
2017-08-28T06:41:11.144Z,62.01
2017-08-28T06:42:11.216Z,60.88
2017-08-28T06:43:11.194Z,60.88
2017-08-28T06:44:10.928Z,60.32
2017-08-28T06:45:11.264Z,59.94
2017-08-28T06:46:10.992Z,59.48
2017-08-28T06:47:11.332Z,59.58
2017-08-28T06:48:11.063Z,59.06
2017-08-28T06:49:11.416Z,58.51
2017-08-28T06:50:11.438Z,58.8
2017-08-28T06:51:11.166Z,57.96
2017-08-28T06:52:11.203Z,57.76
2017-08-28T06:53:11.241Z,56.98
2017-08-28T06:54:11.579Z,58.61
2017-08-28T06:55:11.633Z,59.64
2017-08-28T06:56:11.342Z,59.84
2017-08-28T06:57:11.702Z,59.16
2017-08-28T06:58:11.721Z,59.06
2017-08-28T06:59:12.065Z,59.58
2017-08-28T07:00:11.793Z,59.55
2017-08-28T07:01:11.839Z,58.09
2017-08-28T07:03:11.910Z,57.76
2017-08-28T07:04:11.973Z,56.82
2017-08-28T07:05:11.983Z,56.26
2017-08-28T07:06:12.013Z,55.58
2017-08-28T07:07:12.050Z,57.15
2017-08-28T07:08:26.685Z,59.64
2017-08-28T07:09:12.115Z,60.65
2017-08-28T07:10:12.166Z,59.42
2017-08-28T07:11:12.185Z,58.39
2017-08-28T07:12:12.221Z,58.12
2017-08-28T07:13:12.266Z,57.96
2017-08-28T07:16:12.392Z,55.88
2017-08-28T07:17:12.395Z,55.88
2017-08-28T07:20:12.508Z,58.77
2017-08-28T07:22:12.586Z,56.98
2017-08-28T07:23:12.619Z,55.75
2017-08-28T07:24:27.259Z,56.72
2017-08-28T07:26:12.730Z,56.6
2017-08-28T07:27:12.450Z,56.79
2017-08-28T07:28:12.799Z,55.85
2017-08-28T07:29:12.574Z,55.39
2017-08-28T07:30:12.865Z,54.9
2017-08-28T07:32:12.941Z,55.1
2017-08-28T07:33:12.969Z,54.49
2017-08-28T07:34:13.020Z,54.22
2017-08-28T07:35:13.045Z,54.28
2017-08-28T07:36:13.096Z,54.08
2017-08-28T07:37:13.115Z,52.94
2017-08-28T07:38:13.165Z,52.16
2017-08-28T07:39:13.198Z,52.16
2017-08-28T07:40:27.835Z,52.04
2017-08-28T07:41:13.277Z,52.26
2017-08-28T07:42:13.294Z,52.67
2017-08-28T07:43:13.338Z,50.75
2017-08-28T07:44:13.394Z,49.68
2017-08-28T07:45:13.416Z,51.51
2017-08-28T07:46:13.124Z,53.86
2017-08-28T07:47:13.168Z,55.27
2017-08-28T07:48:13.521Z,55.17
2017-08-28T07:49:13.559Z,54.61
2017-08-28T07:50:13.584Z,53.83
2017-08-28T07:51:13.621Z,52.04
2017-08-28T07:52:13.355Z,52.36
2017-08-28T07:53:13.696Z,50.9
2017-08-28T07:54:13.741Z,51.14
2017-08-28T07:55:13.784Z,50.53
2017-08-28T07:56:28.409Z,50.53
2017-08-28T07:57:13.848Z,49.68
2017-08-28T07:58:13.881Z,50.29
2017-08-28T07:59:13.921Z,49.32
2017-08-28T08:01:13.988Z,50.26
2017-08-28T08:03:14.111Z,48.73
2017-08-28T08:04:14.100Z,49.63
2017-08-28T08:05:14.132Z,48.56
2017-08-28T08:06:14.177Z,49.15
2017-08-28T08:07:14.206Z,50.75
2017-08-28T08:08:14.237Z,50.95
2017-08-28T08:09:14.281Z,51.04
2017-08-28T08:10:14.324Z,49.22
2017-08-28T08:11:28.954Z,47.97
2017-08-28T08:12:14.390Z,48.95
2017-08-28T08:13:14.430Z,48.39
2017-08-28T08:14:14.140Z,47.31
2017-08-28T08:15:14.488Z,47.12
2017-08-28T08:16:14.530Z,47.02
2017-08-28T08:17:14.569Z,46.56
2017-08-28T08:18:14.609Z,45.31
2017-08-28T08:20:14.674Z,46.48
2017-08-28T08:21:14.714Z,46.78
2017-08-28T08:22:14.740Z,45.51
2017-08-28T08:23:14.791Z,46.07
2017-08-28T08:24:14.819Z,47.22
2017-08-28T08:25:14.844Z,46.8
2017-08-28T08:26:14.888Z,48.32
2017-08-28T08:27:14.933Z,50.53
2017-08-28T08:28:14.966Z,50.24
2017-08-28T08:29:14.997Z,50.51
2017-08-28T08:30:14.707Z,51.29
2017-08-28T08:31:15.063Z,51.55
2017-08-28T08:32:15.106Z,53.25
2017-08-28T08:33:15.129Z,52.37
2017-08-28T08:34:15.170Z,53.61
2017-08-28T08:35:15.202Z,54.05
2017-08-28T08:36:15.238Z,54.82
2017-08-28T08:37:15.261Z,54
2017-08-28T08:38:15.302Z,53.78
2017-08-28T08:39:15.350Z,53.61
2017-08-28T08:40:15.378Z,52.57
2017-08-28T08:41:15.410Z,50.78
2017-08-28T08:42:15.439Z,49.73
2017-08-28T08:43:30.069Z,48
2017-08-28T08:44:15.506Z,48.51
2017-08-28T08:45:15.545Z,48.71
2017-08-28T08:46:15.567Z,49.83
2017-08-28T08:47:15.608Z,49.9
2017-08-28T08:48:15.627Z,49.24
2017-08-28T08:49:15.674Z,48.97
2017-08-28T08:50:15.707Z,47.53
2017-08-28T08:51:15.744Z,47.56
2017-08-28T08:52:15.775Z,48.51
2017-08-28T08:53:15.808Z,49.24
2017-08-28T08:54:15.845Z,50.26
2017-08-28T08:55:15.874Z,50.92
2017-08-28T08:56:15.900Z,52.13
2017-08-28T08:57:15.952Z,53.63
2017-08-28T08:58:15.657Z,55.93
2017-08-28T08:59:30.609Z,56.87
2017-08-28T09:00:15.724Z,56.87
2017-08-28T09:01:16.066Z,56.49
2017-08-28T09:02:16.111Z,56.81
2017-08-28T09:03:16.139Z,56.41
2017-08-28T09:04:16.170Z,57.94
2017-08-28T09:05:16.204Z,58.23
2017-08-28T09:06:16.236Z,58.98
2017-08-28T09:07:16.273Z,59.84
2017-08-28T09:08:16.304Z,58.98
2017-08-28T09:09:16.337Z,58.78
2017-08-28T09:10:16.047Z,58.49
2017-08-28T09:11:16.403Z,58.04
2017-08-28T09:12:16.413Z,57.65
2017-08-28T09:13:16.471Z,58.52
2017-08-28T09:14:16.161Z,58.78
2017-08-28T09:15:31.119Z,59
2017-08-28T09:16:16.542Z,59.27
2017-08-28T09:17:16.589Z,57.26
2017-08-28T09:18:16.605Z,57.09
2017-08-28T09:19:16.643Z,55.18
2017-08-28T09:20:16.351Z,53.85
2017-08-28T09:21:16.706Z,51.97
2017-08-28T09:22:16.731Z,50.34
2017-08-28T09:23:16.759Z,49.78
2017-08-28T09:24:16.798Z,50.29
2017-08-28T09:25:16.827Z,49.9
2017-08-28T09:26:16.868Z,49.32
2017-08-28T09:27:16.895Z,50.29
2017-08-28T09:28:16.928Z,50.87
2017-08-28T09:29:16.959Z,49.99
2017-08-28T09:30:16.991Z,47.59
2017-08-28T09:31:31.622Z,48.19
2017-08-28T09:32:17.051Z,48.9
2017-08-28T09:33:16.776Z,48.27
2017-08-28T09:34:17.117Z,46.56
2017-08-28T09:35:17.152Z,44.24
2017-08-28T09:36:17.176Z,46.68
2017-08-28T09:37:17.218Z,48.12
2017-08-28T09:38:17.248Z,46.78
2017-08-28T09:39:17.271Z,46.09
2017-08-28T09:40:17.317Z,44.24
2017-08-28T09:41:17.031Z,44.14
2017-08-28T09:42:17.061Z,44.38
2017-08-28T09:43:17.094Z,44.29
2017-08-28T09:44:17.431Z,45.51
2017-08-28T09:45:17.479Z,46.93
2017-08-28T09:46:32.114Z,49.05
2017-08-28T09:47:17.531Z,49.19
2017-08-28T09:48:17.579Z,49.68
2017-08-28T09:49:17.607Z,49.17
2017-08-28T09:50:17.643Z,50.51
2017-08-28T09:51:17.348Z,49.37
2017-08-28T09:53:17.426Z,48.61
2017-08-28T09:54:17.759Z,48.51
2017-08-28T09:56:17.835Z,51.57
2017-08-28T09:57:17.866Z,51.16
2017-08-28T09:58:17.894Z,52.13
2017-08-28T09:59:17.930Z,51.55
2017-08-28T10:00:17.678Z,50.8
2017-08-28T10:01:17.982Z,51.57
2017-08-28T10:02:18.025Z,52.4
2017-08-28T10:03:18.058Z,53.83
2017-08-28T10:05:18.119Z,54.38
2017-08-28T10:06:18.156Z,54.09
2017-08-28T10:07:18.182Z,54.28
2017-08-28T10:08:18.212Z,53.99
2017-08-28T10:09:18.228Z,54.26
2017-08-28T10:10:18.273Z,54.86
2017-08-28T10:11:18.292Z,55.81
2017-08-28T10:13:18.365Z,55.81
2017-08-28T10:14:18.400Z,56.16
2017-08-28T10:15:18.105Z,56.46
2017-08-28T10:16:18.458Z,56.82
2017-08-28T10:17:18.481Z,56.62
2017-08-28T10:18:33.115Z,57.86
2017-08-28T10:19:18.227Z,58.92
2017-08-28T10:20:18.575Z,60.27
2017-08-28T10:21:18.655Z,59.89
2017-08-28T10:22:18.632Z,58.63
2017-08-28T10:23:18.669Z,57.98
2017-08-28T10:24:18.696Z,57.69
2017-08-28T10:26:18.753Z,56.36
2017-08-28T10:27:18.784Z,56.26
2017-08-28T10:28:18.810Z,55.58
2017-08-28T10:29:18.840Z,56.43
2017-08-28T10:30:18.876Z,56.04
2017-08-28T10:31:18.899Z,56.43
2017-08-28T10:32:18.610Z,56.14
2017-08-28T10:33:18.954Z,55.56
2017-08-28T10:34:33.584Z,55.98
2017-08-28T10:38:19.099Z,54.59
2017-08-28T10:39:19.129Z,54.33
2017-08-28T10:40:19.166Z,53.55
2017-08-28T10:41:18.868Z,53.07
2017-08-28T10:42:19.218Z,53.04
2017-08-28T10:43:19.249Z,52.49
2017-08-28T10:44:19.275Z,52.39
2017-08-28T10:45:19.303Z,51.52
2017-08-28T10:46:19.334Z,52.29
2017-08-28T10:47:19.369Z,53.36
2017-08-28T10:48:19.387Z,52.51
2017-08-28T10:49:19.417Z,53.29
2017-08-28T10:50:34.046Z,54.06
2017-08-28T10:51:19.477Z,51.54
2017-08-28T10:52:19.506Z,51.16
2017-08-28T10:53:19.521Z,51.16
2017-08-28T10:54:19.563Z,51.84
2017-08-28T10:55:19.578Z,51.96
2017-08-28T10:56:19.627Z,51.16
2017-08-28T10:57:19.648Z,50.12
2017-08-28T10:58:19.684Z,51.67
2017-08-28T10:59:19.705Z,51.28
2017-08-28T11:00:19.722Z,52.25
2017-08-28T11:01:19.762Z,50.53
2017-08-28T11:02:19.781Z,50.43
2017-08-28T11:03:19.827Z,51.69
2017-08-28T11:04:19.851Z,52.25
2017-08-28T11:05:19.889Z,53.31
2017-08-28T11:06:34.507Z,52.44
2017-08-28T11:07:19.941Z,52.71
2017-08-28T11:08:19.963Z,53.97
2017-08-28T11:09:19.988Z,55.3
2017-08-28T11:10:20.012Z,55
2017-08-28T11:11:20.050Z,55.2
2017-08-28T11:12:20.073Z,56.65
2017-08-28T11:13:20.119Z,57.11
2017-08-28T11:14:20.128Z,57.79
2017-08-28T11:16:20.188Z,57.76
2017-08-28T11:17:20.220Z,58.12
2017-08-28T11:18:20.254Z,58.24
2017-08-28T11:19:19.961Z,56.98
2017-08-28T11:20:20.314Z,57.15
2017-08-28T11:21:34.937Z,58.21
2017-08-28T11:22:20.376Z,59.21
2017-08-28T11:23:20.386Z,58.72
2017-08-28T11:24:20.103Z,56.6
2017-08-28T11:25:20.449Z,55.79
2017-08-28T11:26:20.164Z,56.6
2017-08-28T11:27:20.193Z,56.37
2017-08-28T11:28:20.529Z,57.46
2017-08-28T11:29:20.250Z,57.76
2017-08-28T11:30:20.593Z,55.92
2017-08-28T11:31:20.616Z,55.63
2017-08-28T11:32:20.652Z,55.43
2017-08-28T11:33:20.675Z,56.5
2017-08-28T11:35:20.417Z,57.86
2017-08-28T11:36:20.754Z,56.98
2017-08-28T11:37:20.788Z,56.14
2017-08-28T11:38:20.497Z,55.66
2017-08-28T11:39:20.863Z,56.34
2017-08-28T11:40:20.870Z,55.76
2017-08-28T11:41:20.589Z,55.17
2017-08-28T11:42:20.919Z,55.27
2017-08-28T11:43:20.644Z,55.76
2017-08-28T11:44:20.671Z,54.69
2017-08-28T11:45:20.688Z,54.3
2017-08-28T11:46:21.043Z,54.57
2017-08-28T11:47:21.070Z,54.66
2017-08-28T11:48:21.102Z,55.63
2017-08-28T11:49:21.125Z,56.7
2017-08-28T11:50:21.164Z,56.09
2017-08-28T11:51:21.183Z,56.57
2017-08-28T11:52:21.215Z,56.47
2017-08-28T11:53:35.832Z,55.6
2017-08-28T11:55:21.316Z,56.5
2017-08-28T11:56:21.318Z,56.37
2017-08-28T11:57:21.356Z,56.4
2017-08-28T11:58:21.415Z,57.08
2017-08-28T11:59:21.402Z,57.73
2017-08-28T12:00:21.431Z,57.73
2017-08-28T12:01:21.467Z,56.76
2017-08-28T12:05:21.571Z,58.89
2017-08-28T12:06:21.599Z,60.11
2017-08-28T12:07:21.629Z,58.6
2017-08-28T12:08:21.658Z,58.5
2017-08-28T12:09:36.277Z,58.89
2017-08-28T12:10:21.717Z,60.31
2017-08-28T12:11:21.737Z,60.02
2017-08-28T12:12:21.443Z,60.44
2017-08-28T12:13:21.789Z,61.27
2017-08-28T12:14:21.819Z,60.21
2017-08-28T12:15:21.855Z,59.83
2017-08-28T12:16:21.877Z,62.15
2017-08-28T12:17:21.908Z,60.89
2017-08-28T12:18:21.932Z,61.76
2017-08-28T12:19:21.963Z,61.57
2017-08-28T12:20:21.976Z,60.21
2017-08-28T12:21:21.698Z,61.57
2017-08-28T12:22:22.027Z,61.27
2017-08-28T12:23:22.067Z,61.27
2017-08-28T12:24:22.094Z,60.79
2017-08-28T12:25:36.721Z,60.41
2017-08-28T12:27:21.863Z,61.08
2017-08-28T12:28:22.195Z,59.41
2017-08-28T12:29:22.214Z,59.83
2017-08-28T12:30:22.249Z,61.37
2017-08-28T12:31:22.292Z,60.5
2017-08-28T12:32:22.318Z,60.31
2017-08-28T12:34:22.367Z,60.02
2017-08-28T12:35:22.387Z,59.22
2017-08-28T12:36:22.415Z,57.99
2017-08-28T12:37:22.448Z,56.93
2017-08-28T12:38:22.481Z,57.89
2017-08-28T12:39:22.188Z,58.09
2017-08-28T12:40:22.523Z,58.12
2017-08-28T12:41:37.157Z,58.02
2017-08-28T12:42:22.586Z,57.73
2017-08-28T12:43:22.602Z,57.15
2017-08-28T12:44:22.320Z,55.21
2017-08-28T12:45:22.667Z,55.41
2017-08-28T12:46:22.694Z,55.21
2017-08-28T12:47:22.723Z,55.11
2017-08-28T12:48:22.750Z,55.24
2017-08-28T12:49:22.453Z,54.47
2017-08-28T12:50:22.803Z,54.17
2017-08-28T12:51:22.831Z,54.85
2017-08-28T12:52:22.867Z,55.82
2017-08-28T12:53:22.882Z,55.34
2017-08-28T12:54:22.922Z,56.11
2017-08-28T12:55:22.944Z,54.59
2017-08-28T12:56:37.573Z,54.39
2017-08-28T12:57:22.988Z,54.69
2017-08-28T12:58:23.033Z,54.39
2017-08-28T12:59:23.055Z,53.17
2017-08-28T13:00:23.080Z,53.17
2017-08-28T13:01:23.108Z,53.75
2017-08-28T13:02:23.139Z,54.01
2017-08-28T13:03:23.163Z,54.69
2017-08-28T13:04:23.241Z,54.3
2017-08-28T13:05:23.220Z,53.5
2017-08-28T13:07:23.266Z,53.53
2017-08-28T13:08:23.305Z,53.89
2017-08-28T13:09:23.012Z,52.82
2017-08-28T13:10:23.357Z,52.92
2017-08-28T13:11:23.384Z,52.73
2017-08-28T13:12:23.414Z,52.92
2017-08-28T13:13:23.437Z,53.21
2017-08-28T13:15:23.493Z,53.02
2017-08-28T13:16:23.518Z,53.5
2017-08-28T13:17:23.551Z,53.47
2017-08-28T13:18:23.567Z,53.89
2017-08-28T13:21:23.654Z,54.37
2017-08-28T13:22:23.369Z,55.7
2017-08-28T13:23:23.704Z,55.24
2017-08-28T13:25:23.775Z,56.3
2017-08-28T13:27:23.827Z,54.05
2017-08-28T13:28:38.450Z,53.28
2017-08-28T13:29:23.558Z,53.86
2017-08-28T13:30:23.952Z,54.35
2017-08-28T13:31:23.926Z,55.31
2017-08-28T13:32:23.961Z,55.47
2017-08-28T13:33:23.673Z,55.87
2017-08-28T13:34:24.011Z,55.67
2017-08-28T13:35:24.038Z,55.55
2017-08-28T13:36:24.077Z,56.61
2017-08-28T13:39:24.175Z,57.48
2017-08-28T13:40:24.175Z,56.9
2017-08-28T13:41:24.207Z,57.09
2017-08-28T13:42:24.233Z,57.67
2017-08-28T13:43:24.266Z,58.73
2017-08-28T13:44:38.884Z,57.54
2017-08-28T13:45:24.310Z,57.93
2017-08-28T13:46:24.336Z,57.84
2017-08-28T13:47:24.360Z,58.51
2017-08-28T13:48:24.393Z,58.12
2017-08-28T13:49:24.722Z,58.9
2017-08-28T13:50:24.432Z,57.84
2017-08-28T13:51:24.473Z,58.9
2017-08-28T13:53:24.521Z,58.7
2017-08-28T13:54:24.561Z,59.38
2017-08-28T13:55:24.571Z,58.9
2017-08-28T13:56:24.600Z,58.32
2017-08-28T13:57:24.631Z,57.93